createdAt,value
2023-05-21T00:01:39.202Z,73.78
2023-05-21T00:04:07.663Z,73.89
2023-05-21T00:06:36.076Z,74.11
2023-05-21T00:09:05.730Z,74.43
2023-05-21T00:11:33.824Z,74.79
2023-05-21T00:14:01.391Z,74.24
2023-05-21T00:16:29.146Z,74.06
2023-05-21T00:18:58.098Z,74.67
2023-05-21T00:21:26.459Z,74.41
2023-05-21T00:23:56.338Z,74.58
2023-05-21T00:26:25.340Z,74.41
2023-05-21T00:28:52.845Z,74.81
2023-05-21T00:31:20.478Z,74.79
2023-05-21T00:33:48.096Z,74.61
2023-05-21T00:36:15.826Z,74.87
2023-05-21T00:38:45.580Z,75.23
2023-05-21T00:41:13.393Z,74.90
2023-05-21T00:43:42.411Z,75.06
2023-05-21T00:46:13.663Z,75.01
2023-05-21T00:48:41.348Z,75.45
2023-05-21T00:51:09.023Z,75.54
2023-05-21T00:53:36.948Z,75.86
2023-05-21T00:56:05.144Z,75.64
2023-05-21T00:58:33.373Z,75.66
2023-05-21T01:01:03.584Z,76.01
2023-05-21T01:03:38.501Z,75.51
2023-05-21T01:06:06.780Z,76.17
2023-05-21T01:08:34.981Z,75.67
2023-05-21T01:11:03.181Z,76.19
2023-05-21T01:13:31.334Z,75.90
2023-05-21T01:15:59.882Z,76.49
2023-05-21T01:18:28.744Z,76.11
2023-05-21T01:20:59.270Z,76.24
2023-05-21T01:23:28.435Z,76.21
2023-05-21T01:25:56.077Z,76.39
2023-05-21T01:28:23.639Z,76.07
2023-05-21T01:30:51.268Z,76.50
2023-05-21T01:33:23.321Z,76.99
2023-05-21T01:35:53.693Z,76.45
2023-05-21T01:38:24.182Z,76.48
2023-05-21T01:40:54.984Z,76.26
2023-05-21T01:43:23.699Z,76.02
2023-05-21T01:45:52.691Z,76.07
2023-05-21T01:48:20.294Z,76.01
2023-05-21T01:50:48.682Z,76.45
2023-05-21T01:53:17.218Z,76.27
2023-05-21T01:55:45.885Z,76.67
2023-05-21T01:58:15.644Z,76.99
2023-05-21T02:00:45.320Z,76.74
2023-05-21T02:03:13.748Z,77.20
2023-05-21T02:05:41.345Z,77.23
2023-05-21T02:08:09.259Z,77.05
2023-05-21T02:10:36.759Z,77.38
2023-05-21T02:13:04.343Z,76.99
2023-05-21T02:15:34.780Z,77.33
2023-05-21T02:18:02.735Z,77.07
2023-05-21T02:20:31.829Z,77.23
2023-05-21T02:22:59.342Z,77.67
2023-05-21T02:25:26.887Z,77.35
2023-05-21T02:27:56.653Z,77.27
2023-05-21T02:30:24.179Z,77.29
2023-05-21T02:32:53.056Z,77.37
2023-05-21T02:35:20.639Z,77.73
2023-05-21T02:37:48.940Z,77.53
2023-05-21T02:40:16.541Z,77.78
2023-05-21T02:42:44.051Z,77.51
2023-05-21T02:45:12.439Z,78.29
2023-05-21T02:47:40.768Z,78.70
2023-05-21T02:50:10.263Z,78.80
2023-05-21T02:52:37.757Z,78.37
2023-05-21T02:55:05.986Z,78.41
2023-05-21T02:57:33.451Z,78.05
2023-05-21T03:00:01.095Z,77.76
2023-05-21T03:02:28.645Z,78.50
2023-05-21T03:04:56.149Z,78.37
2023-05-21T03:07:24.976Z,77.72
2023-05-21T03:09:52.468Z,78.43
2023-05-21T03:12:19.942Z,78.01
2023-05-21T03:14:47.449Z,78.23
2023-05-21T03:17:15.211Z,78.02
2023-05-21T03:19:42.953Z,78.67
2023-05-21T03:22:11.332Z,78.14
2023-05-21T03:24:41.335Z,78.12
2023-05-21T03:27:08.946Z,77.74
2023-05-21T03:29:37.553Z,78.13
2023-05-21T03:32:06.207Z,78.59
2023-05-21T03:34:35.498Z,78.74
2023-05-21T03:37:03.003Z,78.65
2023-05-21T03:39:30.545Z,78.62
2023-05-21T03:41:59.379Z,78.54
2023-05-21T03:44:26.879Z,79.13
2023-05-21T03:46:54.450Z,78.82
2023-05-21T03:49:21.943Z,78.37
2023-05-21T03:51:49.431Z,78.28
2023-05-21T03:54:16.929Z,78.05
2023-05-21T03:56:44.462Z,78.34
2023-05-21T03:59:13.287Z,78.01
2023-05-21T04:01:40.813Z,78.08
2023-05-21T04:04:08.430Z,78.19
2023-05-21T04:06:36.757Z,78.49
2023-05-21T04:09:04.718Z,78.33
2023-05-21T04:11:32.286Z,78.22
2023-05-21T04:13:59.807Z,77.66
2023-05-21T04:16:28.743Z,78.00
2023-05-21T04:18:56.438Z,78.24
2023-05-21T04:21:23.995Z,78.15
2023-05-21T04:23:53.826Z,77.91
2023-05-21T04:26:21.339Z,77.77
2023-05-21T04:28:48.821Z,77.60
2023-05-21T04:31:16.399Z,78.09
2023-05-21T04:33:45.802Z,78.38
2023-05-21T04:36:13.451Z,77.53
2023-05-21T04:38:41.796Z,77.63
2023-05-21T04:41:10.775Z,77.74
2023-05-21T04:43:43.863Z,77.65
2023-05-21T04:46:11.364Z,77.64
2023-05-21T04:48:39.036Z,77.80
2023-05-21T04:51:07.907Z,77.74
2023-05-21T04:53:35.862Z,77.71
2023-05-21T04:56:03.886Z,77.47
2023-05-21T04:58:32.866Z,77.68
2023-05-21T05:01:02.914Z,77.52
2023-05-21T05:03:31.034Z,77.45
2023-05-21T05:05:58.567Z,77.11
2023-05-21T05:08:27.450Z,76.64
2023-05-21T05:10:54.930Z,76.86
2023-05-21T05:13:22.494Z,76.76
2023-05-21T05:15:51.036Z,76.83
2023-05-21T05:18:19.490Z,77.04
2023-05-21T05:20:47.674Z,76.20
2023-05-21T05:23:15.679Z,76.43
2023-05-21T05:25:44.553Z,75.96
2023-05-21T05:28:12.057Z,76.04
2023-05-21T05:30:39.623Z,76.26
2023-05-21T05:33:07.166Z,75.82
2023-05-21T05:35:34.832Z,76.24
2023-05-21T05:38:02.452Z,76.18
2023-05-21T05:40:29.948Z,75.73
2023-05-21T05:42:58.785Z,75.62
2023-05-21T05:45:26.717Z,75.36
2023-05-21T05:47:54.256Z,75.56
2023-05-21T05:50:22.144Z,75.22
2023-05-21T05:52:49.638Z,75.53
2023-05-21T05:55:17.640Z,75.14
2023-05-21T05:57:45.355Z,74.96
2023-05-21T06:00:15.574Z,74.92
2023-05-21T06:02:43.180Z,74.56
2023-05-21T06:05:11.516Z,74.66
2023-05-21T06:07:39.451Z,74.52
2023-05-21T06:10:07.731Z,74.42
2023-05-21T06:12:35.474Z,74.99
2023-05-21T06:15:03.233Z,74.49
2023-05-21T06:17:32.166Z,74.58
2023-05-21T06:19:59.698Z,74.44
2023-05-21T06:22:27.222Z,74.66
2023-05-21T06:24:54.756Z,74.39
2023-05-21T06:27:22.376Z,74.34
2023-05-21T06:29:49.879Z,74.20
2023-05-21T06:32:17.436Z,73.98
2023-05-21T06:34:46.785Z,73.93
2023-05-21T06:37:14.295Z,73.96
2023-05-21T06:39:41.787Z,73.94
2023-05-21T06:42:09.292Z,73.73
2023-05-21T06:44:36.984Z,73.71
2023-05-21T06:47:04.561Z,73.42
2023-05-21T06:49:33.048Z,73.65
2023-05-21T06:52:02.350Z,73.08
2023-05-21T06:54:29.961Z,73.20
2023-05-21T06:56:57.432Z,72.44
2023-05-21T06:59:24.953Z,72.06
2023-05-21T07:01:52.614Z,71.92
2023-05-21T07:04:20.131Z,71.66
2023-05-21T07:06:48.436Z,71.33
2023-05-21T07:09:18.212Z,70.70
2023-05-21T07:11:45.693Z,70.49
2023-05-21T07:14:13.246Z,70.08
2023-05-21T07:16:40.846Z,69.96
2023-05-21T07:19:08.402Z,69.07
2023-05-21T07:21:35.964Z,68.03
2023-05-21T07:24:03.503Z,68.07
2023-05-21T07:26:32.360Z,67.74
2023-05-21T07:28:59.957Z,67.52
2023-05-21T07:31:27.884Z,67.43
2023-05-21T07:33:55.479Z,67.58
2023-05-21T07:36:22.982Z,67.23
2023-05-21T07:38:51.098Z,66.82
2023-05-21T07:41:18.929Z,67.04
2023-05-21T07:43:47.979Z,65.83
2023-05-21T07:46:15.558Z,65.83
2023-05-21T07:48:43.568Z,65.82
2023-05-21T07:51:11.486Z,65.53
2023-05-21T07:53:39.093Z,65.26
2023-05-21T07:56:07.276Z,65.69
2023-05-21T07:58:35.365Z,65.59
2023-05-21T08:01:04.284Z,65.71
2023-05-21T08:03:32.457Z,65.47
2023-05-21T08:06:00.072Z,65.77
2023-05-21T08:08:27.646Z,64.84
2023-05-21T08:10:55.504Z,65.56
2023-05-21T08:13:23.109Z,65.42
2023-05-21T08:15:52.838Z,65.40
2023-05-21T08:18:23.690Z,65.70
2023-05-21T08:20:51.623Z,65.75
2023-05-21T08:23:19.151Z,65.28
2023-05-21T08:25:46.755Z,64.81
2023-05-21T08:28:14.340Z,65.21
2023-05-21T08:30:41.960Z,65.20
2023-05-21T08:33:09.520Z,64.95
2023-05-21T08:35:38.797Z,64.47
2023-05-21T08:38:06.558Z,64.23
2023-05-21T08:40:35.413Z,64.61
2023-05-21T08:43:02.937Z,64.10
2023-05-21T08:45:37.726Z,64.40
2023-05-21T08:48:07.151Z,63.87
2023-05-21T08:50:34.641Z,64.18
2023-05-21T08:53:07.577Z,63.39
2023-05-21T08:55:44.518Z,63.30
2023-05-21T08:58:12.208Z,62.95
2023-05-21T09:00:39.708Z,62.50
2023-05-21T09:03:10.266Z,61.92
2023-05-21T09:05:40.557Z,62.26
2023-05-21T09:08:15.174Z,62.43
2023-05-21T09:10:47.945Z,62.16
2023-05-21T09:13:17.232Z,62.33
2023-05-21T09:15:45.161Z,61.23
2023-05-21T09:18:13.397Z,61.26
2023-05-21T09:20:41.515Z,59.57
2023-05-21T09:23:12.514Z,59.52
2023-05-21T09:25:40.268Z,59.97
2023-05-21T09:28:13.151Z,59.67
2023-05-21T09:30:45.241Z,59.52
2023-05-21T09:33:12.948Z,59.49
2023-05-21T09:35:46.312Z,59.44
2023-05-21T09:38:15.186Z,60.13
2023-05-21T09:40:46.480Z,59.32
2023-05-21T09:43:15.454Z,59.00
2023-05-21T09:45:52.983Z,58.10
2023-05-21T09:48:34.467Z,58.43
2023-05-21T09:51:12.919Z,57.49
2023-05-21T09:53:52.123Z,57.05
2023-05-21T09:56:24.676Z,56.45
2023-05-21T09:58:54.574Z,56.22
2023-05-21T10:01:22.697Z,56.90
2023-05-21T10:04:01.802Z,56.68
2023-05-21T10:06:31.196Z,56.42
2023-05-21T10:09:02.547Z,56.64
2023-05-21T10:11:32.941Z,55.56
2023-05-21T10:14:04.312Z,56.28
2023-05-21T10:16:34.089Z,55.29
2023-05-21T10:19:01.848Z,55.61
2023-05-21T10:21:29.517Z,55.08
2023-05-21T10:24:01.275Z,55.83
2023-05-21T10:26:29.310Z,55.77
2023-05-21T10:28:58.452Z,55.59
2023-05-21T10:31:26.640Z,54.78
2023-05-21T10:33:55.325Z,55.20
2023-05-21T10:36:23.164Z,54.80
2023-05-21T10:38:50.729Z,55.34
2023-05-21T10:41:20.898Z,54.50
2023-05-21T10:44:05.646Z,53.47
2023-05-21T10:46:54.216Z,53.90
2023-05-21T10:49:36.407Z,52.62
2023-05-21T10:52:09.073Z,53.95
2023-05-21T10:55:09.509Z,53.66
2023-05-21T10:58:03.383Z,53.72
2023-05-21T11:00:32.430Z,54.15
2023-05-21T11:03:00.567Z,53.30
2023-05-21T11:05:39.631Z,52.98
2023-05-21T11:08:07.491Z,53.41
2023-05-21T11:10:39.690Z,52.72
2023-05-21T11:13:13.948Z,52.76
2023-05-21T11:16:05.726Z,53.43
2023-05-21T11:19:00.678Z,52.45
2023-05-21T11:21:35.420Z,51.06
2023-05-21T11:24:06.304Z,49.92
2023-05-21T11:27:04.776Z,50.56
2023-05-21T11:29:41.567Z,51.17
2023-05-21T11:32:10.413Z,47.97
2023-05-21T11:34:39.643Z,46.94
2023-05-21T11:37:28.977Z,45.67
2023-05-21T11:39:57.957Z,45.18
2023-05-21T11:42:32.650Z,44.01
2023-05-21T11:45:02.698Z,43.80
2023-05-21T11:47:31.983Z,43.00
2023-05-21T11:50:01.122Z,44.24
2023-05-21T11:52:30.338Z,42.93
2023-05-21T11:54:59.790Z,42.31
2023-05-21T11:57:30.802Z,42.74
2023-05-21T11:59:59.707Z,41.92
2023-05-21T12:02:33.878Z,43.80
2023-05-21T12:05:01.870Z,43.89
2023-05-21T12:07:31.289Z,43.87
2023-05-21T12:09:59.441Z,43.02
2023-05-21T12:12:33.028Z,43.57
2023-05-21T12:15:12.553Z,43.21
2023-05-21T12:17:42.033Z,43.24
2023-05-21T12:20:10.798Z,42.33
2023-05-21T12:22:43.494Z,42.53
2023-05-21T12:25:11.978Z,42.58
2023-05-21T12:27:40.009Z,43.11
2023-05-21T12:30:09.677Z,42.52
2023-05-21T12:32:38.179Z,42.52
2023-05-21T12:35:07.828Z,42.36
2023-05-21T12:37:35.819Z,42.16
2023-05-21T12:40:07.717Z,41.66
2023-05-21T12:42:35.636Z,41.88
2023-05-21T12:45:07.189Z,41.30
2023-05-21T12:47:34.871Z,42.24
2023-05-21T12:50:06.365Z,41.64
2023-05-21T12:52:35.482Z,41.80
2023-05-21T12:55:03.077Z,41.71
2023-05-21T12:57:38.737Z,41.71
2023-05-21T13:00:07.854Z,41.34
2023-05-21T13:02:36.971Z,41.70
2023-05-21T13:05:06.456Z,41.54
2023-05-21T13:07:36.489Z,41.23
2023-05-21T13:10:05.994Z,43.03
2023-05-21T13:12:34.425Z,39.65
2023-05-21T13:15:03.235Z,37.05
2023-05-21T13:17:31.061Z,37.48
2023-05-21T13:20:09.394Z,37.67
2023-05-21T13:22:42.256Z,38.34
2023-05-21T13:25:11.024Z,39.19
2023-05-21T13:27:38.721Z,38.50
2023-05-21T13:30:07.675Z,38.26
2023-05-21T13:32:35.424Z,37.31
2023-05-21T13:35:03.289Z,38.27
2023-05-21T13:37:30.796Z,36.23
2023-05-21T13:40:00.226Z,37.07
2023-05-21T13:42:28.343Z,36.88
2023-05-21T13:44:55.963Z,36.00
2023-05-21T13:47:24.018Z,36.26
2023-05-21T13:49:51.947Z,37.10
2023-05-21T13:52:22.248Z,38.08
2023-05-21T13:54:49.834Z,36.98
2023-05-21T13:57:18.969Z,36.51
2023-05-21T13:59:46.493Z,36.26
2023-05-21T14:02:14.165Z,37.39
2023-05-21T14:04:41.713Z,38.29
2023-05-21T14:07:09.744Z,38.43
2023-05-21T14:09:37.436Z,37.40
2023-05-21T14:12:06.766Z,36.98
2023-05-21T14:14:36.185Z,37.46
2023-05-21T14:17:03.878Z,36.69
2023-05-21T14:19:31.768Z,37.53
2023-05-21T14:21:59.982Z,36.78
2023-05-21T14:24:27.593Z,36.43
2023-05-21T14:26:55.523Z,35.58
2023-05-21T14:29:23.344Z,35.64
2023-05-21T14:31:52.417Z,36.09
2023-05-21T14:34:20.027Z,38.55
2023-05-21T14:36:47.563Z,38.37
2023-05-21T14:39:15.099Z,37.45
2023-05-21T14:41:42.643Z,36.04
2023-05-21T14:44:10.130Z,36.44
2023-05-21T14:46:37.770Z,35.96
2023-05-21T14:49:06.665Z,38.02
2023-05-21T14:51:34.182Z,36.83
2023-05-21T14:54:01.727Z,36.02
2023-05-21T14:56:29.212Z,36.68
2023-05-21T14:58:57.168Z,36.23
2023-05-21T15:01:24.936Z,36.95
2023-05-21T15:03:52.601Z,36.16
2023-05-21T15:06:21.578Z,36.93
2023-05-21T15:08:49.186Z,36.89
2023-05-21T15:11:16.707Z,36.22
2023-05-21T15:13:44.202Z,36.58
2023-05-21T15:16:14.331Z,36.90
2023-05-21T15:18:44.831Z,37.65
2023-05-21T15:21:12.658Z,37.08
2023-05-21T15:23:42.297Z,36.46
2023-05-21T15:26:10.211Z,36.29
2023-05-21T15:28:38.321Z,37.06
2023-05-21T15:31:06.034Z,36.22
2023-05-21T15:33:34.156Z,37.27
2023-05-21T15:36:03.307Z,35.75
2023-05-21T15:38:31.219Z,36.54
2023-05-21T15:41:00.367Z,36.93
2023-05-21T15:43:27.959Z,35.82
2023-05-21T15:45:57.826Z,35.20
2023-05-21T15:48:25.546Z,35.97
2023-05-21T15:50:53.108Z,36.95
2023-05-21T15:53:20.681Z,36.33
2023-05-21T15:55:48.831Z,36.23
2023-05-21T15:58:17.655Z,35.81
2023-05-21T16:00:45.286Z,35.30
2023-05-21T16:03:13.457Z,36.07
2023-05-21T16:05:41.351Z,35.34
2023-05-21T16:08:10.718Z,34.91
2023-05-21T16:10:39.930Z,34.73
2023-05-21T16:13:07.811Z,34.93
2023-05-21T16:15:37.312Z,36.27
2023-05-21T16:18:05.346Z,36.30
2023-05-21T16:20:33.338Z,36.28
2023-05-21T16:23:00.901Z,36.47
2023-05-21T16:25:31.078Z,36.62
2023-05-21T16:27:58.622Z,36.36
2023-05-21T16:30:26.460Z,36.45
2023-05-21T16:32:55.675Z,35.79
2023-05-21T16:35:23.233Z,36.22
2023-05-21T16:37:51.058Z,37.46
2023-05-21T16:40:18.588Z,36.59
2023-05-21T16:42:46.153Z,35.75
2023-05-21T16:45:20.342Z,37.46
2023-05-21T16:47:48.728Z,35.41
2023-05-21T16:50:18.041Z,33.87
2023-05-21T16:52:45.738Z,34.11
2023-05-21T16:55:13.303Z,34.34
2023-05-21T16:57:40.900Z,33.32
2023-05-21T17:00:09.350Z,33.43
2023-05-21T17:02:37.038Z,33.98
2023-05-21T17:05:05.161Z,33.31
2023-05-21T17:07:34.067Z,33.52
2023-05-21T17:10:01.578Z,32.74
2023-05-21T17:12:29.094Z,32.81
2023-05-21T17:14:56.608Z,32.29
2023-05-21T17:17:24.202Z,33.33
2023-05-21T17:19:51.706Z,33.40
2023-05-21T17:22:19.732Z,33.00
2023-05-21T17:24:48.746Z,33.18
2023-05-21T17:27:16.312Z,34.30
2023-05-21T17:29:44.863Z,35.69
2023-05-21T17:32:12.942Z,39.88
2023-05-21T17:34:40.578Z,34.84
2023-05-21T17:37:08.114Z,35.66
2023-05-21T17:39:35.623Z,37.23
2023-05-21T17:42:04.884Z,35.04
2023-05-21T17:44:32.438Z,35.10
2023-05-21T17:46:59.993Z,35.78
2023-05-21T17:49:27.732Z,38.60
2023-05-21T17:51:55.445Z,39.36
2023-05-21T17:54:23.275Z,36.85
2023-05-21T17:56:50.789Z,39.07
2023-05-21T17:59:21.135Z,39.23
2023-05-21T18:01:48.716Z,39.34
2023-05-21T18:04:16.368Z,36.40
2023-05-21T18:06:44.037Z,40.15
2023-05-21T18:09:14.194Z,41.62
2023-05-21T18:11:43.543Z,40.70
2023-05-21T18:14:11.103Z,42.21
2023-05-21T18:16:40.029Z,38.06
2023-05-21T18:19:07.721Z,41.91
2023-05-21T18:21:35.567Z,44.23
2023-05-21T18:24:03.255Z,45.71
2023-05-21T18:26:31.031Z,46.12
2023-05-21T18:28:58.952Z,46.85
2023-05-21T18:31:26.707Z,47.18
2023-05-21T18:33:55.645Z,48.18
2023-05-21T18:36:23.850Z,48.09
2023-05-21T18:38:52.224Z,48.93
2023-05-21T18:41:19.956Z,48.75
2023-05-21T18:43:47.567Z,49.57
2023-05-21T18:46:15.096Z,50.42
2023-05-21T18:48:42.630Z,51.15
2023-05-21T18:51:11.465Z,50.89
2023-05-21T18:53:39.174Z,51.01
2023-05-21T18:56:07.401Z,51.03
2023-05-21T18:58:35.825Z,51.55
2023-05-21T19:01:03.407Z,51.68
2023-05-21T19:03:32.046Z,53.25
2023-05-21T19:05:59.591Z,53.48
2023-05-21T19:08:28.531Z,54.01
2023-05-21T19:10:56.303Z,54.65
2023-05-21T19:13:24.370Z,54.70
2023-05-21T19:15:51.963Z,55.48
2023-05-21T19:18:19.595Z,55.90
2023-05-21T19:20:47.210Z,56.22
2023-05-21T19:23:15.186Z,57.42
2023-05-21T19:25:44.269Z,57.97
2023-05-21T19:28:11.909Z,58.81
2023-05-21T19:30:39.767Z,59.95
2023-05-21T19:33:07.545Z,59.21
2023-05-21T19:35:35.093Z,60.21
2023-05-21T19:38:04.955Z,60.33
2023-05-21T19:40:32.854Z,62.43
2023-05-21T19:43:02.699Z,62.78
2023-05-21T19:45:30.263Z,62.87
2023-05-21T19:47:59.200Z,63.42
2023-05-21T19:50:28.470Z,64.58
2023-05-21T19:52:56.034Z,65.91
2023-05-21T19:55:24.540Z,65.60
2023-05-21T19:57:52.293Z,65.95
2023-05-21T20:00:22.273Z,66.11
2023-05-21T20:02:49.892Z,66.71
2023-05-21T20:05:18.519Z,68.01
2023-05-21T20:07:46.046Z,68.82
2023-05-21T20:10:13.633Z,68.93
2023-05-21T20:12:41.145Z,69.03
2023-05-21T20:15:09.346Z,70.00
2023-05-21T20:17:39.343Z,69.77
2023-05-21T20:20:10.304Z,69.82
2023-05-21T20:22:37.925Z,70.10
2023-05-21T20:25:08.527Z,69.97
2023-05-21T20:27:38.521Z,70.88
2023-05-21T20:30:07.808Z,70.24
2023-05-21T20:32:35.655Z,71.38
2023-05-21T20:35:05.047Z,70.51
2023-05-21T20:37:33.806Z,71.28
2023-05-21T20:40:01.369Z,71.48
2023-05-21T20:42:34.575Z,72.79
2023-05-21T20:45:02.906Z,73.68
2023-05-21T20:47:51.044Z,73.33
2023-05-21T20:50:21.717Z,72.30
2023-05-21T20:52:49.569Z,72.71
2023-05-21T20:55:17.267Z,74.42
2023-05-21T20:57:44.817Z,74.77
2023-05-21T21:00:13.610Z,74.45
2023-05-21T21:02:41.313Z,74.62
2023-05-21T21:05:10.308Z,74.81
2023-05-21T21:07:40.019Z,74.72
2023-05-21T21:10:08.565Z,74.37
2023-05-21T21:12:36.115Z,75.00
2023-05-21T21:15:03.907Z,75.75
2023-05-21T21:17:31.485Z,76.22
2023-05-21T21:19:59.045Z,76.18
2023-05-21T21:22:26.753Z,76.47
2023-05-21T21:24:55.746Z,76.04
2023-05-21T21:27:23.888Z,76.17
2023-05-21T21:29:51.420Z,76.57
2023-05-21T21:32:18.977Z,76.94
2023-05-21T21:34:46.530Z,77.03
2023-05-21T21:37:14.071Z,77.09
2023-05-21T21:39:41.626Z,77.36
2023-05-21T21:42:11.112Z,77.18
2023-05-21T21:44:39.271Z,78.45
2023-05-21T21:47:07.377Z,78.80
2023-05-21T21:49:35.115Z,79.30
2023-05-21T21:52:02.688Z,79.31
2023-05-21T21:54:30.344Z,79.09
2023-05-21T21:56:57.965Z,79.22
2023-05-21T21:59:26.861Z,79.84
2023-05-21T22:01:54.436Z,79.76
2023-05-21T22:04:22.159Z,79.54
2023-05-21T22:06:50.057Z,79.73
2023-05-21T22:09:17.961Z,80.00
2023-05-21T22:11:45.525Z,79.21
2023-05-21T22:14:13.082Z,79.53
2023-05-21T22:16:43.130Z,79.19
2023-05-21T22:19:12.769Z,78.48
2023-05-21T22:21:41.908Z,78.89
2023-05-21T22:24:20.629Z,78.74
2023-05-21T22:26:57.409Z,77.39
2023-05-21T22:29:24.977Z,77.20
2023-05-21T22:31:53.995Z,76.01
2023-05-21T22:34:22.285Z,73.85
2023-05-21T22:36:49.865Z,73.07
2023-05-21T22:39:17.997Z,71.27
2023-05-21T22:41:45.796Z,70.78
2023-05-21T22:44:13.429Z,71.25
2023-05-21T22:46:42.170Z,71.11
2023-05-21T22:49:11.154Z,71.04
2023-05-21T22:51:39.160Z,71.09
2023-05-21T22:54:06.777Z,70.95
2023-05-21T22:56:34.355Z,71.21
2023-05-21T22:59:01.913Z,71.51
2023-05-21T23:01:29.506Z,71.74
2023-05-21T23:03:57.025Z,72.23
2023-05-21T23:06:25.900Z,72.40
2023-05-21T23:08:53.464Z,72.52
2023-05-21T23:11:21.236Z,72.65
2023-05-21T23:13:48.715Z,72.86
2023-05-21T23:16:16.890Z,72.36
2023-05-21T23:18:44.526Z,72.84
2023-05-21T23:21:12.165Z,73.00
2023-05-21T23:23:41.085Z,73.35
2023-05-21T23:26:08.621Z,73.00
2023-05-21T23:28:37.102Z,72.73
2023-05-21T23:31:04.787Z,73.41
2023-05-21T23:33:32.366Z,73.24
2023-05-21T23:35:59.975Z,73.29
2023-05-21T23:38:27.559Z,73.13
2023-05-21T23:40:56.417Z,73.04
2023-05-21T23:43:23.905Z,73.25
2023-05-21T23:45:51.463Z,72.83
2023-05-21T23:48:19.063Z,72.49
2023-05-21T23:50:46.612Z,72.49
2023-05-21T23:53:14.124Z,72.73
2023-05-21T23:55:42.238Z,72.53
2023-05-21T23:58:11.425Z,72.89
